sensor_id;sensor_type;location;lat;lon;timestamp;temperature;humidity
15455;DHT22;21057;51.024;7.540;2023-07-02T00:01:40;17.10;99.90
15455;DHT22;21057;51.024;7.540;2023-07-02T00:04:06;17.30;99.90
15455;DHT22;21057;51.024;7.540;2023-07-02T00:06:34;17.20;99.90
15455;DHT22;21057;51.024;7.540;2023-07-02T00:09:05;17.20;99.90
15455;DHT22;21057;51.024;7.540;2023-07-02T00:11:32;17.30;99.90
15455;DHT22;21057;51.024;7.540;2023-07-02T00:14:00;17.30;99.90
15455;DHT22;21057;51.024;7.540;2023-07-02T00:16:27;17.10;99.90
15455;DHT22;21057;51.024;7.540;2023-07-02T00:18:54;16.90;99.90
15455;DHT22;21057;51.024;7.540;2023-07-02T00:21:21;16.90;99.90
15455;DHT22;21057;51.024;7.540;2023-07-02T00:23:48;16.90;99.90
15455;DHT22;21057;51.024;7.540;2023-07-02T00:26:15;16.90;99.90
15455;DHT22;21057;51.024;7.540;2023-07-02T00:28:42;17.20;99.90
15455;DHT22;21057;51.024;7.540;2023-07-02T00:31:10;17.00;99.90
15455;DHT22;21057;51.024;7.540;2023-07-02T00:33:36;17.10;99.90
15455;DHT22;21057;51.024;7.540;2023-07-02T00:36:04;17.10;99.90
15455;DHT22;21057;51.024;7.540;2023-07-02T00:38:30;17.10;99.90
15455;DHT22;21057;51.024;7.540;2023-07-02T00:40:57;17.20;99.90
15455;DHT22;21057;51.024;7.540;2023-07-02T00:43:24;17.20;99.90
15455;DHT22;21057;51.024;7.540;2023-07-02T00:45:51;17.00;99.90
15455;DHT22;21057;51.024;7.540;2023-07-02T00:48:19;17.00;99.90
15455;DHT22;21057;51.024;7.540;2023-07-02T00:50:46;17.10;99.90
15455;DHT22;21057;51.024;7.540;2023-07-02T00:53:13;17.10;99.90
15455;DHT22;21057;51.024;7.540;2023-07-02T00:55:39;17.00;99.90
15455;DHT22;21057;51.024;7.540;2023-07-02T00:58:06;17.00;99.90
15455;DHT22;21057;51.024;7.540;2023-07-02T01:00:34;16.80;99.90
15455;DHT22;21057;51.024;7.540;2023-07-02T01:03:00;16.80;99.90
15455;DHT22;21057;51.024;7.540;2023-07-02T01:05:29;16.90;99.90
15455;DHT22;21057;51.024;7.540;2023-07-02T01:08:01;16.70;99.90
15455;DHT22;21057;51.024;7.540;2023-07-02T01:10:28;16.80;99.90
15455;DHT22;21057;51.024;7.540;2023-07-02T01:12:57;16.90;99.90
15455;DHT22;21057;51.024;7.540;2023-07-02T01:15:26;16.80;99.90
15455;DHT22;21057;51.024;7.540;2023-07-02T01:17:53;16.90;99.90
15455;DHT22;21057;51.024;7.540;2023-07-02T01:20:22;16.80;99.90
15455;DHT22;21057;51.024;7.540;2023-07-02T01:22:50;16.80;99.90
15455;DHT22;21057;51.024;7.540;2023-07-02T01:25:18;16.80;99.90
15455;DHT22;21057;51.024;7.540;2023-07-02T01:27:50;17.00;99.90
15455;DHT22;21057;51.024;7.540;2023-07-02T01:30:17;16.90;99.90
15455;DHT22;21057;51.024;7.540;2023-07-02T01:32:43;16.60;99.90
15455;DHT22;21057;51.024;7.540;2023-07-02T01:35:10;16.60;99.90
15455;DHT22;21057;51.024;7.540;2023-07-02T01:37:38;16.60;99.90
15455;DHT22;21057;51.024;7.540;2023-07-02T01:40:06;16.60;99.90
15455;DHT22;21057;51.024;7.540;2023-07-02T01:42:34;16.70;99.90
15455;DHT22;21057;51.024;7.540;2023-07-02T01:45:01;16.70;99.90
15455;DHT22;21057;51.024;7.540;2023-07-02T01:47:27;16.60;99.90
15455;DHT22;21057;51.024;7.540;2023-07-02T01:49:54;16.50;99.90
15455;DHT22;21057;51.024;7.540;2023-07-02T01:52:21;16.60;99.90
15455;DHT22;21057;51.024;7.540;2023-07-02T01:54:49;16.60;99.90
15455;DHT22;21057;51.024;7.540;2023-07-02T01:57:17;16.40;99.90
15455;DHT22;21057;51.024;7.540;2023-07-02T01:59:44;16.30;99.90
15455;DHT22;21057;51.024;7.540;2023-07-02T02:02:11;16.20;99.90
15455;DHT22;21057;51.024;7.540;2023-07-02T02:04:38;16.30;99.90
15455;DHT22;21057;51.024;7.540;2023-07-02T02:07:04;16.40;99.90
15455;DHT22;21057;51.024;7.540;2023-07-02T02:09:31;16.60;99.90
15455;DHT22;21057;51.024;7.540;2023-07-02T02:12:00;16.60;99.90
15455;DHT22;21057;51.024;7.540;2023-07-02T02:14:27;16.70;99.90
15455;DHT22;21057;51.024;7.540;2023-07-02T02:16:53;16.60;99.90
15455;DHT22;21057;51.024;7.540;2023-07-02T02:19:20;16.60;99.90
15455;DHT22;21057;51.024;7.540;2023-07-02T02:21:47;16.70;99.90
15455;DHT22;21057;51.024;7.540;2023-07-02T02:24:14;16.70;99.90
15455;DHT22;21057;51.024;7.540;2023-07-02T02:26:41;16.60;99.90
15455;DHT22;21057;51.024;7.540;2023-07-02T02:29:09;16.60;99.90
15455;DHT22;21057;51.024;7.540;2023-07-02T02:31:35;16.60;99.90
15455;DHT22;21057;51.024;7.540;2023-07-02T02:34:03;16.50;99.90
15455;DHT22;21057;51.024;7.540;2023-07-02T02:36:30;16.50;99.90
15455;DHT22;21057;51.024;7.540;2023-07-02T02:39:01;16.60;99.90
15455;DHT22;21057;51.024;7.540;2023-07-02T02:41:27;16.70;99.90
15455;DHT22;21057;51.024;7.540;2023-07-02T02:43:54;16.80;99.90
15455;DHT22;21057;51.024;7.540;2023-07-02T02:46:23;16.80;99.90
15455;DHT22;21057;51.024;7.540;2023-07-02T02:48:49;16.70;99.90
15455;DHT22;21057;51.024;7.540;2023-07-02T02:51:17;16.40;99.90
15455;DHT22;21057;51.024;7.540;2023-07-02T02:53:44;16.20;99.90
15455;DHT22;21057;51.024;7.540;2023-07-02T02:56:11;16.00;99.90
15455;DHT22;21057;51.024;7.540;2023-07-02T02:58:40;16.00;99.90
15455;DHT22;21057;51.024;7.540;2023-07-02T03:01:07;16.10;99.90
15455;DHT22;21057;51.024;7.540;2023-07-02T03:03:38;16.20;99.90
15455;DHT22;21057;51.024;7.540;2023-07-02T03:06:05;16.20;99.90
15455;DHT22;21057;51.024;7.540;2023-07-02T03:08:31;16.40;99.90
15455;DHT22;21057;51.024;7.540;2023-07-02T03:10:58;16.30;99.90
15455;DHT22;21057;51.024;7.540;2023-07-02T03:13:25;16.30;99.90
15455;DHT22;21057;51.024;7.540;2023-07-02T03:15:52;16.30;99.90
15455;DHT22;21057;51.024;7.540;2023-07-02T03:18:19;16.40;99.90
15455;DHT22;21057;51.024;7.540;2023-07-02T03:20:47;16.30;99.90
15455;DHT22;21057;51.024;7.540;2023-07-02T03:23:14;16.40;99.90
15455;DHT22;21057;51.024;7.540;2023-07-02T03:25:41;16.40;99.90
15455;DHT22;21057;51.024;7.540;2023-07-02T03:28:07;16.50;99.90
15455;DHT22;21057;51.024;7.540;2023-07-02T03:30:34;16.50;99.90
15455;DHT22;21057;51.024;7.540;2023-07-02T03:33:01;16.40;99.90
15455;DHT22;21057;51.024;7.540;2023-07-02T03:35:28;16.30;99.90
15455;DHT22;21057;51.024;7.540;2023-07-02T03:37:56;16.50;99.90
15455;DHT22;21057;51.024;7.540;2023-07-02T03:40:23;16.40;99.90
15455;DHT22;21057;51.024;7.540;2023-07-02T03:42:50;16.30;99.90
15455;DHT22;21057;51.024;7.540;2023-07-02T03:45:17;16.40;99.90
15455;DHT22;21057;51.024;7.540;2023-07-02T03:47:44;16.50;99.90
15455;DHT22;21057;51.024;7.540;2023-07-02T03:50:10;16.50;99.90
15455;DHT22;21057;51.024;7.540;2023-07-02T03:52:37;16.50;99.90
15455;DHT22;21057;51.024;7.540;2023-07-02T03:55:07;16.50;99.90
15455;DHT22;21057;51.024;7.540;2023-07-02T03:57:33;16.60;99.90
15455;DHT22;21057;51.024;7.540;2023-07-02T04:00:00;16.50;99.90
15455;DHT22;21057;51.024;7.540;2023-07-02T04:02:27;16.50;99.90
15455;DHT22;21057;51.024;7.540;2023-07-02T04:04:54;16.50;99.90
15455;DHT22;21057;51.024;7.540;2023-07-02T04:07:21;16.50;99.90
15455;DHT22;21057;51.024;7.540;2023-07-02T04:09:48;16.60;99.90
15455;DHT22;21057;51.024;7.540;2023-07-02T04:12:16;16.60;99.90
15455;DHT22;21057;51.024;7.540;2023-07-02T04:14:43;16.60;99.90
15455;DHT22;21057;51.024;7.540;2023-07-02T04:17:09;16.70;99.90
15455;DHT22;21057;51.024;7.540;2023-07-02T04:19:36;16.60;99.90
15455;DHT22;21057;51.024;7.540;2023-07-02T04:22:03;16.70;99.90
15455;DHT22;21057;51.024;7.540;2023-07-02T04:24:30;16.70;99.90
15455;DHT22;21057;51.024;7.540;2023-07-02T04:26:57;16.60;99.90
15455;DHT22;21057;51.024;7.540;2023-07-02T04:29:26;16.60;99.90
15455;DHT22;21057;51.024;7.540;2023-07-02T04:31:53;16.60;99.90
15455;DHT22;21057;51.024;7.540;2023-07-02T04:34:20;16.70;99.90
15455;DHT22;21057;51.024;7.540;2023-07-02T04:36:47;16.70;99.90
15455;DHT22;21057;51.024;7.540;2023-07-02T04:39:14;16.70;99.90
15455;DHT22;21057;51.024;7.540;2023-07-02T04:41:41;16.60;99.90
15455;DHT22;21057;51.024;7.540;2023-07-02T04:44:08;16.60;99.90
15455;DHT22;21057;51.024;7.540;2023-07-02T04:46:36;16.60;99.90
15455;DHT22;21057;51.024;7.540;2023-07-02T04:49:03;16.60;99.90
15455;DHT22;21057;51.024;7.540;2023-07-02T04:51:30;16.60;99.90
15455;DHT22;21057;51.024;7.540;2023-07-02T04:53:57;16.50;99.90
15455;DHT22;21057;51.024;7.540;2023-07-02T04:56:24;16.60;99.90
15455;DHT22;21057;51.024;7.540;2023-07-02T04:58:51;16.60;99.90
15455;DHT22;21057;51.024;7.540;2023-07-02T05:01:17;16.50;99.90
15455;DHT22;21057;51.024;7.540;2023-07-02T05:03:45;16.60;99.90
15455;DHT22;21057;51.024;7.540;2023-07-02T05:06:12;16.60;99.90
15455;DHT22;21057;51.024;7.540;2023-07-02T05:08:39;16.50;99.90
15455;DHT22;21057;51.024;7.540;2023-07-02T05:11:06;16.50;99.90
15455;DHT22;21057;51.024;7.540;2023-07-02T05:13:33;16.50;99.90
15455;DHT22;21057;51.024;7.540;2023-07-02T05:16:00;16.50;99.90
15455;DHT22;21057;51.024;7.540;2023-07-02T05:18:27;16.50;99.90
15455;DHT22;21057;51.024;7.540;2023-07-02T05:20:55;16.40;99.90
15455;DHT22;21057;51.024;7.540;2023-07-02T05:23:22;16.40;99.90
15455;DHT22;21057;51.024;7.540;2023-07-02T05:25:48;16.30;99.90
15455;DHT22;21057;51.024;7.540;2023-07-02T05:28:15;16.40;99.90
15455;DHT22;21057;51.024;7.540;2023-07-02T05:30:42;16.40;99.90
15455;DHT22;21057;51.024;7.540;2023-07-02T05:33:09;16.50;99.90
15455;DHT22;21057;51.024;7.540;2023-07-02T05:35:36;16.40;99.90
15455;DHT22;21057;51.024;7.540;2023-07-02T05:38:04;16.40;99.90
15455;DHT22;21057;51.024;7.540;2023-07-02T05:40:31;16.40;99.90
15455;DHT22;21057;51.024;7.540;2023-07-02T05:42:57;16.40;99.90
15455;DHT22;21057;51.024;7.540;2023-07-02T05:45:24;16.60;99.90
15455;DHT22;21057;51.024;7.540;2023-07-02T05:47:53;16.50;99.90
15455;DHT22;21057;51.024;7.540;2023-07-02T05:50:19;16.40;99.90
15455;DHT22;21057;51.024;7.540;2023-07-02T05:52:46;16.60;99.90
15455;DHT22;21057;51.024;7.540;2023-07-02T05:55:14;16.80;99.90
15455;DHT22;21057;51.024;7.540;2023-07-02T05:57:41;16.90;99.90
15455;DHT22;21057;51.024;7.540;2023-07-02T06:00:09;16.90;99.90
15455;DHT22;21057;51.024;7.540;2023-07-02T06:02:36;16.90;99.90
15455;DHT22;21057;51.024;7.540;2023-07-02T06:05:03;16.70;99.90
15455;DHT22;21057;51.024;7.540;2023-07-02T06:07:30;16.80;99.90
15455;DHT22;21057;51.024;7.540;2023-07-02T06:09:57;17.00;99.90
15455;DHT22;21057;51.024;7.540;2023-07-02T06:12:25;17.00;99.90
15455;DHT22;21057;51.024;7.540;2023-07-02T06:14:52;16.70;99.90
15455;DHT22;21057;51.024;7.540;2023-07-02T06:17:19;16.80;99.90
15455;DHT22;21057;51.024;7.540;2023-07-02T06:19:46;16.70;99.90
15455;DHT22;21057;51.024;7.540;2023-07-02T06:22:13;16.70;99.90
15455;DHT22;21057;51.024;7.540;2023-07-02T06:24:39;16.60;99.90
15455;DHT22;21057;51.024;7.540;2023-07-02T06:27:06;16.70;99.90
15455;DHT22;21057;51.024;7.540;2023-07-02T06:29:34;16.80;99.90
15455;DHT22;21057;51.024;7.540;2023-07-02T06:32:01;16.80;99.90
15455;DHT22;21057;51.024;7.540;2023-07-02T06:34:28;16.90;99.90
15455;DHT22;21057;51.024;7.540;2023-07-02T06:36:55;17.10;99.90
15455;DHT22;21057;51.024;7.540;2023-07-02T14:41:15;21.80;94.20
15455;DHT22;21057;51.024;7.540;2023-07-02T14:43:42;22.20;95.40
15455;DHT22;21057;51.024;7.540;2023-07-02T14:46:09;22.70;93.40
15455;DHT22;21057;51.024;7.540;2023-07-02T14:48:36;23.10;92.70
15455;DHT22;21057;51.024;7.540;2023-07-02T14:51:03;23.10;92.90
15455;DHT22;21057;51.024;7.540;2023-07-02T14:53:33;22.90;92.40
15455;DHT22;21057;51.024;7.540;2023-07-02T14:56:02;23.40;91.60
15455;DHT22;21057;51.024;7.540;2023-07-02T14:58:31;23.40;91.50
15455;DHT22;21057;51.024;7.540;2023-07-02T15:00:58;23.10;91.10
15455;DHT22;21057;51.024;7.540;2023-07-02T15:03:26;22.60;90.30
15455;DHT22;21057;51.024;7.540;2023-07-02T15:05:53;22.50;91.70
15455;DHT22;21057;51.024;7.540;2023-07-02T15:08:21;22.40;92.30
15455;DHT22;21057;51.024;7.540;2023-07-02T15:10:49;22.80;91.40
15455;DHT22;21057;51.024;7.540;2023-07-02T15:13:17;22.70;91.20
15455;DHT22;21057;51.024;7.540;2023-07-02T15:15:46;22.70;91.20
15455;DHT22;21057;51.024;7.540;2023-07-02T15:18:13;23.30;90.90
15455;DHT22;21057;51.024;7.540;2023-07-02T15:20:40;23.20;90.60
15455;DHT22;21057;51.024;7.540;2023-07-02T15:23:07;23.60;91.80
15455;DHT22;21057;51.024;7.540;2023-07-02T15:25:35;23.10;87.20
15455;DHT22;21057;51.024;7.540;2023-07-02T15:28:02;22.80;89.10
15455;DHT22;21057;51.024;7.540;2023-07-02T15:30:31;22.60;90.70
15455;DHT22;21057;51.024;7.540;2023-07-02T15:33:01;22.90;90.00
15455;DHT22;21057;51.024;7.540;2023-07-02T15:35:28;23.60;89.00
15455;DHT22;21057;51.024;7.540;2023-07-02T15:37:55;23.60;89.00
15455;DHT22;21057;51.024;7.540;2023-07-02T15:40:22;23.40;90.40
15455;DHT22;21057;51.024;7.540;2023-07-02T15:42:51;23.20;89.00
15455;DHT22;21057;51.024;7.540;2023-07-02T15:45:18;23.50;90.10
15455;DHT22;21057;51.024;7.540;2023-07-02T15:47:47;23.20;87.40
15455;DHT22;21057;51.024;7.540;2023-07-02T15:50:15;22.50;88.90
15455;DHT22;21057;51.024;7.540;2023-07-02T15:52:42;22.10;90.60
15455;DHT22;21057;51.024;7.540;2023-07-02T15:55:09;22.20;90.40
15455;DHT22;21057;51.024;7.540;2023-07-02T15:57:36;21.90;90.50
15455;DHT22;21057;51.024;7.540;2023-07-02T16:00:04;21.80;91.60
15455;DHT22;21057;51.024;7.540;2023-07-02T16:02:31;22.00;91.90
15455;DHT22;21057;51.024;7.540;2023-07-02T16:04:58;21.80;91.50
15455;DHT22;21057;51.024;7.540;2023-07-02T16:07:26;21.80;91.40
15455;DHT22;21057;51.024;7.540;2023-07-02T16:09:53;22.10;91.80
15455;DHT22;21057;51.024;7.540;2023-07-02T16:12:19;22.30;91.60
15455;DHT22;21057;51.024;7.540;2023-07-02T16:14:46;22.30;91.70
15455;DHT22;21057;51.024;7.540;2023-07-02T16:17:13;22.80;91.90
15455;DHT22;21057;51.024;7.540;2023-07-02T16:19:40;22.70;90.90
15455;DHT22;21057;51.024;7.540;2023-07-02T16:22:07;22.90;90.20
15455;DHT22;21057;51.024;7.540;2023-07-02T16:24:35;22.80;91.00
15455;DHT22;21057;51.024;7.540;2023-07-02T16:27:05;22.80;91.10
15455;DHT22;21057;51.024;7.540;2023-07-02T16:29:35;22.90;90.30
15455;DHT22;21057;51.024;7.540;2023-07-02T16:32:04;22.60;91.00
15455;DHT22;21057;51.024;7.540;2023-07-02T16:34:31;22.50;90.60
15455;DHT22;21057;51.024;7.540;2023-07-02T16:36:58;22.80;90.40
15455;DHT22;21057;51.024;7.540;2023-07-02T16:39:25;22.80;90.80
15455;DHT22;21057;51.024;7.540;2023-07-02T16:41:53;22.80;90.60
15455;DHT22;21057;51.024;7.540;2023-07-02T16:44:21;22.60;90.70
15455;DHT22;21057;51.024;7.540;2023-07-02T16:46:50;22.30;91.50
15455;DHT22;21057;51.024;7.540;2023-07-02T16:49:20;22.20;91.60
15455;DHT22;21057;51.024;7.540;2023-07-02T16:51:47;22.10;91.30
15455;DHT22;21057;51.024;7.540;2023-07-02T16:54:16;21.80;91.70
15455;DHT22;21057;51.024;7.540;2023-07-02T16:56:45;21.80;92.50
15455;DHT22;21057;51.024;7.540;2023-07-02T16:59:15;22.00;92.60
15455;DHT22;21057;51.024;7.540;2023-07-02T17:01:44;21.90;92.00
15455;DHT22;21057;51.024;7.540;2023-07-02T17:04:13;22.00;92.30
15455;DHT22;21057;51.024;7.540;2023-07-02T17:06:41;22.10;91.40
15455;DHT22;21057;51.024;7.540;2023-07-02T17:09:17;21.90;91.80
15455;DHT22;21057;51.024;7.540;2023-07-02T17:11:46;21.70;92.20
15455;DHT22;21057;51.024;7.540;2023-07-02T17:14:18;21.80;92.90
15455;DHT22;21057;51.024;7.540;2023-07-02T17:16:48;21.90;92.80
15455;DHT22;21057;51.024;7.540;2023-07-02T17:19:23;22.10;92.70
15455;DHT22;21057;51.024;7.540;2023-07-02T17:21:51;22.50;92.30
15455;DHT22;21057;51.024;7.540;2023-07-02T17:24:21;22.20;91.90
15455;DHT22;21057;51.024;7.540;2023-07-02T17:26:49;22.10;92.40
15455;DHT22;21057;51.024;7.540;2023-07-02T17:29:18;22.20;93.70
15455;DHT22;21057;51.024;7.540;2023-07-02T17:31:50;22.40;92.70
15455;DHT22;21057;51.024;7.540;2023-07-02T17:34:22;22.30;92.70
15455;DHT22;21057;51.024;7.540;2023-07-02T17:36:50;22.30;92.40
15455;DHT22;21057;51.024;7.540;2023-07-02T17:39:18;22.30;92.60
15455;DHT22;21057;51.024;7.540;2023-07-02T17:41:46;22.10;92.70
15455;DHT22;21057;51.024;7.540;2023-07-02T17:44:14;21.90;92.60
15455;DHT22;21057;51.024;7.540;2023-07-02T17:46:43;21.80;93.10
15455;DHT22;21057;51.024;7.540;2023-07-02T17:49:15;21.90;93.60
15455;DHT22;21057;51.024;7.540;2023-07-02T17:51:42;22.00;93.40
15455;DHT22;21057;51.024;7.540;2023-07-02T17:54:09;22.00;93.50
15455;DHT22;21057;51.024;7.540;2023-07-02T17:56:35;21.90;93.60
15455;DHT22;21057;51.024;7.540;2023-07-02T17:59:03;22.00;93.80
15455;DHT22;21057;51.024;7.540;2023-07-02T18:01:38;21.60;94.00
15455;DHT22;21057;51.024;7.540;2023-07-02T18:04:06;21.50;94.80
15455;DHT22;21057;51.024;7.540;2023-07-02T18:06:33;21.60;94.10
15455;DHT22;21057;51.024;7.540;2023-07-02T18:09:01;21.40;94.40
15455;DHT22;21057;51.024;7.540;2023-07-02T18:11:29;21.50;95.00
15455;DHT22;21057;51.024;7.540;2023-07-02T18:13:57;21.50;94.80
15455;DHT22;21057;51.024;7.540;2023-07-02T18:16:24;21.50;95.30
15455;DHT22;21057;51.024;7.540;2023-07-02T18:18:50;21.40;95.10
15455;DHT22;21057;51.024;7.540;2023-07-02T18:21:19;21.20;95.10
15455;DHT22;21057;51.024;7.540;2023-07-02T18:23:46;21.20;95.20
15455;DHT22;21057;51.024;7.540;2023-07-02T18:26:12;21.20;95.00
15455;DHT22;21057;51.024;7.540;2023-07-02T18:28:39;21.10;95.00
15455;DHT22;21057;51.024;7.540;2023-07-02T18:31:07;21.00;95.60
15455;DHT22;21057;51.024;7.540;2023-07-02T18:33:35;21.20;95.70
15455;DHT22;21057;51.024;7.540;2023-07-02T18:36:02;21.20;95.00
15455;DHT22;21057;51.024;7.540;2023-07-02T18:38:30;21.10;94.80
15455;DHT22;21057;51.024;7.540;2023-07-02T18:41:01;20.90;95.90
15455;DHT22;21057;51.024;7.540;2023-07-02T18:43:30;21.00;95.80
15455;DHT22;21057;51.024;7.540;2023-07-02T18:45:56;21.20;95.30
15455;DHT22;21057;51.024;7.540;2023-07-02T18:48:23;21.30;95.50
15455;DHT22;21057;51.024;7.540;2023-07-02T18:50:50;21.00;95.40
15455;DHT22;21057;51.024;7.540;2023-07-02T18:53:18;20.90;96.00
15455;DHT22;21057;51.024;7.540;2023-07-02T18:55:55;21.10;96.00
15455;DHT22;21057;51.024;7.540;2023-07-02T18:58:23;21.10;96.10
15455;DHT22;21057;51.024;7.540;2023-07-02T19:00:50;21.20;96.30
15455;DHT22;21057;51.024;7.540;2023-07-02T19:03:17;21.10;95.80
15455;DHT22;21057;51.024;7.540;2023-07-02T19:05:44;21.00;95.90
15455;DHT22;21057;51.024;7.540;2023-07-02T19:08:11;21.00;96.00
15455;DHT22;21057;51.024;7.540;2023-07-02T19:10:38;20.90;96.40
15455;DHT22;21057;51.024;7.540;2023-07-02T19:13:09;20.90;96.60
15455;DHT22;21057;51.024;7.540;2023-07-02T19:15:36;21.00;96.80
15455;DHT22;21057;51.024;7.540;2023-07-02T19:18:04;21.00;96.70
15455;DHT22;21057;51.024;7.540;2023-07-02T19:20:31;21.10;96.90
15455;DHT22;21057;51.024;7.540;2023-07-02T19:22:58;21.00;96.70
15455;DHT22;21057;51.024;7.540;2023-07-02T19:25:25;20.90;96.70
15455;DHT22;21057;51.024;7.540;2023-07-02T19:27:52;20.90;97.40
15455;DHT22;21057;51.024;7.540;2023-07-02T19:30:20;20.90;97.60
15455;DHT22;21057;51.024;7.540;2023-07-02T19:32:47;20.80;97.80
15455;DHT22;21057;51.024;7.540;2023-07-02T19:35:14;20.80;97.40
15455;DHT22;21057;51.024;7.540;2023-07-02T19:37:41;20.80;97.80
15455;DHT22;21057;51.024;7.540;2023-07-02T19:40:08;20.70;98.70
15455;DHT22;21057;51.024;7.540;2023-07-02T19:42:36;20.70;99.50
15455;DHT22;21057;51.024;7.540;2023-07-02T19:45:04;20.80;99.60
15455;DHT22;21057;51.024;7.540;2023-07-02T19:47:33;20.70;99.60
15455;DHT22;21057;51.024;7.540;2023-07-02T19:50:00;20.60;99.50
15455;DHT22;21057;51.024;7.540;2023-07-02T19:52:28;20.60;98.50
15455;DHT22;21057;51.024;7.540;2023-07-02T19:54:58;20.50;98.80
15455;DHT22;21057;51.024;7.540;2023-07-02T19:57:25;20.40;99.80
15455;DHT22;21057;51.024;7.540;2023-07-02T19:59:52;20.40;99.40
15455;DHT22;21057;51.024;7.540;2023-07-02T20:02:19;20.40;99.70
15455;DHT22;21057;51.024;7.540;2023-07-02T20:04:56;20.50;99.50
15455;DHT22;21057;51.024;7.540;2023-07-02T20:07:24;20.30;99.90
15455;DHT22;21057;51.024;7.540;2023-07-02T20:09:53;20.30;99.90
15455;DHT22;21057;51.024;7.540;2023-07-02T20:12:20;20.20;99.90
15455;DHT22;21057;51.024;7.540;2023-07-02T20:14:48;20.20;99.90
15455;DHT22;21057;51.024;7.540;2023-07-02T20:17:16;20.10;99.90
15455;DHT22;21057;51.024;7.540;2023-07-02T20:19:44;20.10;99.90
15455;DHT22;21057;51.024;7.540;2023-07-02T20:22:16;20.30;99.90
15455;DHT22;21057;51.024;7.540;2023-07-02T20:24:43;20.20;99.90
15455;DHT22;21057;51.024;7.540;2023-07-02T20:27:10;20.00;99.90
15455;DHT22;21057;51.024;7.540;2023-07-02T20:29:37;19.80;99.90
15455;DHT22;21057;51.024;7.540;2023-07-02T20:32:05;19.70;99.90
15455;DHT22;21057;51.024;7.540;2023-07-02T20:34:32;19.80;99.90
15455;DHT22;21057;51.024;7.540;2023-07-02T20:36:59;19.90;99.90
15455;DHT22;21057;51.024;7.540;2023-07-02T20:39:27;19.80;99.90
15455;DHT22;21057;51.024;7.540;2023-07-02T20:41:54;19.90;99.90
15455;DHT22;21057;51.024;7.540;2023-07-02T20:44:22;19.90;99.90
15455;DHT22;21057;51.024;7.540;2023-07-02T20:46:49;19.90;99.90
15455;DHT22;21057;51.024;7.540;2023-07-02T20:49:19;19.90;99.90
15455;DHT22;21057;51.024;7.540;2023-07-02T20:51:47;19.90;99.90
15455;DHT22;21057;51.024;7.540;2023-07-02T20:54:16;20.00;99.90
15455;DHT22;21057;51.024;7.540;2023-07-02T20:56:47;19.90;99.90
15455;DHT22;21057;51.024;7.540;2023-07-02T20:59:14;19.90;99.90
15455;DHT22;21057;51.024;7.540;2023-07-02T21:01:41;19.90;99.90
15455;DHT22;21057;51.024;7.540;2023-07-02T21:04:09;19.80;99.90
15455;DHT22;21057;51.024;7.540;2023-07-02T21:06:37;19.80;99.90
15455;DHT22;21057;51.024;7.540;2023-07-02T21:09:06;19.90;99.90
15455;DHT22;21057;51.024;7.540;2023-07-02T21:11:34;19.80;99.90
15455;DHT22;21057;51.024;7.540;2023-07-02T21:14:04;19.80;99.90
15455;DHT22;21057;51.024;7.540;2023-07-02T21:16:32;19.70;99.90
15455;DHT22;21057;51.024;7.540;2023-07-02T21:18:59;19.50;99.90
15455;DHT22;21057;51.024;7.540;2023-07-02T21:21:26;19.30;99.90
15455;DHT22;21057;51.024;7.540;2023-07-02T21:23:54;19.30;99.90
15455;DHT22;21057;51.024;7.540;2023-07-02T21:26:21;19.20;99.90
15455;DHT22;21057;51.024;7.540;2023-07-02T21:28:48;19.10;99.90
15455;DHT22;21057;51.024;7.540;2023-07-02T21:31:16;19.20;99.90
15455;DHT22;21057;51.024;7.540;2023-07-02T21:33:43;19.10;99.90
15455;DHT22;21057;51.024;7.540;2023-07-02T21:36:09;19.20;99.90
15455;DHT22;21057;51.024;7.540;2023-07-02T21:38:38;19.20;99.90
15455;DHT22;21057;51.024;7.540;2023-07-02T21:41:05;19.30;99.90
15455;DHT22;21057;51.024;7.540;2023-07-02T21:43:32;19.30;99.90
15455;DHT22;21057;51.024;7.540;2023-07-02T21:46:01;19.30;99.90
15455;DHT22;21057;51.024;7.540;2023-07-02T21:48:30;19.30;99.90
15455;DHT22;21057;51.024;7.540;2023-07-02T21:50:57;19.10;99.90
15455;DHT22;21057;51.024;7.540;2023-07-02T21:53:24;19.10;99.90
15455;DHT22;21057;51.024;7.540;2023-07-02T21:55:51;19.00;99.90
15455;DHT22;21057;51.024;7.540;2023-07-02T21:58:18;18.90;99.90
15455;DHT22;21057;51.024;7.540;2023-07-02T22:00:45;18.90;99.90
15455;DHT22;21057;51.024;7.540;2023-07-02T22:03:12;18.70;99.90
15455;DHT22;21057;51.024;7.540;2023-07-02T22:05:41;18.70;99.90
15455;DHT22;21057;51.024;7.540;2023-07-02T22:08:08;18.80;99.90
15455;DHT22;21057;51.024;7.540;2023-07-02T22:10:35;18.90;99.90
15455;DHT22;21057;51.024;7.540;2023-07-02T22:13:04;18.90;99.90
15455;DHT22;21057;51.024;7.540;2023-07-02T22:15:31;18.60;99.90
15455;DHT22;21057;51.024;7.540;2023-07-02T22:17:58;18.40;99.90
15455;DHT22;21057;51.024;7.540;2023-07-02T22:20:27;18.40;99.90
15455;DHT22;21057;51.024;7.540;2023-07-02T22:22:56;18.40;99.90
15455;DHT22;21057;51.024;7.540;2023-07-02T22:25:24;18.30;99.90
15455;DHT22;21057;51.024;7.540;2023-07-02T22:27:52;18.30;99.90
15455;DHT22;21057;51.024;7.540;2023-07-02T22:30:19;18.30;99.90
15455;DHT22;21057;51.024;7.540;2023-07-02T22:32:46;18.20;99.90
15455;DHT22;21057;51.024;7.540;2023-07-02T22:35:13;18.20;99.90
15455;DHT22;21057;51.024;7.540;2023-07-02T22:37:40;18.20;99.90
15455;DHT22;21057;51.024;7.540;2023-07-02T22:40:10;18.10;99.90
15455;DHT22;21057;51.024;7.540;2023-07-02T22:42:38;18.00;99.90
15455;DHT22;21057;51.024;7.540;2023-07-02T22:45:06;18.00;99.90
15455;DHT22;21057;51.024;7.540;2023-07-02T22:47:33;17.90;99.90
15455;DHT22;21057;51.024;7.540;2023-07-02T22:50:00;17.80;99.90
15455;DHT22;21057;51.024;7.540;2023-07-02T22:52:27;17.60;99.90
15455;DHT22;21057;51.024;7.540;2023-07-02T22:54:55;17.50;99.90
15455;DHT22;21057;51.024;7.540;2023-07-02T22:57:23;17.50;99.90
15455;DHT22;21057;51.024;7.540;2023-07-02T22:59:51;17.40;99.90
15455;DHT22;21057;51.024;7.540;2023-07-02T23:02:18;17.20;99.90
15455;DHT22;21057;51.024;7.540;2023-07-02T23:04:44;17.20;99.90
15455;DHT22;21057;51.024;7.540;2023-07-02T23:07:11;17.10;99.70
15455;DHT22;21057;51.024;7.540;2023-07-02T23:09:38;17.20;99.90
15455;DHT22;21057;51.024;7.540;2023-07-02T23:12:06;17.30;99.40
15455;DHT22;21057;51.024;7.540;2023-07-02T23:14:34;17.30;99.40
15455;DHT22;21057;51.024;7.540;2023-07-02T23:17:01;17.20;99.50
15455;DHT22;21057;51.024;7.540;2023-07-02T23:19:28;17.30;99.80
15455;DHT22;21057;51.024;7.540;2023-07-02T23:21:55;17.20;99.20
15455;DHT22;21057;51.024;7.540;2023-07-02T23:24:22;17.10;99.30
15455;DHT22;21057;51.024;7.540;2023-07-02T23:26:49;17.00;99.40
15455;DHT22;21057;51.024;7.540;2023-07-02T23:29:16;17.00;99.60
15455;DHT22;21057;51.024;7.540;2023-07-02T23:31:48;17.00;99.60
15455;DHT22;21057;51.024;7.540;2023-07-02T23:34:15;16.90;99.40